Time,TemperatureF,DewpointF,PressureIn,WindDirection,WindDirectionDegrees,WindSpeedMPH,WindSpeedGustMPH,Humidity,HourlyPrecipIn,Conditions,Clouds,dailyrainin,SoftwareType,DateUTC
2017-04-30 00:00:00,80.5,75.0,29.93,East,80,1.0,6.0,82,0.00,,,0.00,weatherlink.com 1.10,2017-04-30 04:00:00,
2017-04-30 00:15:00,80.5,75.0,29.93,West,276,0.0,5.0,83,0.00,,,0.00,weatherlink.com 1.10,2017-04-30 04:15:00,
2017-04-30 00:30:00,80.5,75.0,29.92,SE,141,0.0,6.0,82,0.00,,,0.00,weatherlink.com 1.10,2017-04-30 04:30:00,
2017-04-30 00:45:00,80.7,75.0,29.92,ESE,109,0.0,2.0,83,0.00,,,0.00,weatherlink.com 1.10,2017-04-30 04:45:00,
2017-04-30 01:00:00,80.6,75.0,29.92,East,99,1.0,2.0,84,0.00,,,0.00,weatherlink.com 1.10,2017-04-30 05:00:00,
2017-04-30 01:15:00,80.0,75.0,29.91,SE,141,0.0,4.0,85,0.00,,,0.00,weatherlink.com 1.10,2017-04-30 05:15:00,
2017-04-30 01:30:00,80.1,75.0,29.91,ENE,68,6.0,6.0,85,0.00,,,0.00,weatherlink.com 1.10,2017-04-30 05:30:00,
2017-04-30 01:45:00,80.2,75.0,29.90,West,266,2.0,5.0,84,0.00,,,0.00,weatherlink.com 1.10,2017-04-30 05:45:00,
2017-04-30 02:00:00,80.1,75.0,29.89,WSW,245,0.0,8.0,83,0.00,,,0.00,weatherlink.com 1.10,2017-04-30 06:00:00,
2017-04-30 02:15:00,78.7,74.0,29.90,SW,226,4.0,13.0,86,0.02,,,0.02,weatherlink.com 1.10,2017-04-30 06:15:00,
2017-04-30 02:30:00,77.2,74.0,29.88,ESE,112,1.0,4.0,90,0.03,,,0.03,weatherlink.com 1.10,2017-04-30 06:30:00,
2017-04-30 02:45:00,77.0,74.0,29.88,East,98,3.0,8.0,91,0.03,,,0.03,weatherlink.com 1.10,2017-04-30 06:45:00,
2017-04-30 03:00:00,76.7,74.0,29.88,East,98,0.0,5.0,91,0.03,,,0.03,weatherlink.com 1.10,2017-04-30 07:00:00,
2017-04-30 03:15:00,76.4,74.0,29.88,NE,56,8.0,8.0,91,0.01,,,0.03,weatherlink.com 1.10,2017-04-30 07:15:00,
2017-04-30 03:30:00,76.6,74.0,29.88,SW,225,0.0,2.0,92,0.00,,,0.03,weatherlink.com 1.10,2017-04-30 07:30:00,
2017-04-30 03:45:00,76.8,74.0,29.88,ESE,104,0.0,6.0,91,0.00,,,0.03,weatherlink.com 1.10,2017-04-30 07:45:00,
2017-04-30 04:00:00,77.1,74.0,29.88,South,184,0.0,6.0,90,0.00,,,0.03,weatherlink.com 1.10,2017-04-30 08:00:00,
2017-04-30 04:15:00,77.6,74.0,29.88,East,87,0.0,4.0,88,0.00,,,0.03,weatherlink.com 1.10,2017-04-30 08:15:00,
2017-04-30 04:30:00,78.2,74.0,29.88,SE,135,0.0,5.0,87,0.00,,,0.03,weatherlink.com 1.10,2017-04-30 08:30:00,
2017-04-30 04:45:00,78.4,74.0,29.89,East,93,2.0,2.0,86,0.00,,,0.03,weatherlink.com 1.10,2017-04-30 08:45:00,
2017-04-30 05:00:00,78.8,74.0,29.89,East,84,2.0,6.0,85,0.00,,,0.03,weatherlink.com 1.10,2017-04-30 09:00:00,
2017-04-30 05:15:00,79.0,74.0,29.89,East,91,0.0,9.0,85,0.00,,,0.03,weatherlink.com 1.10,2017-04-30 09:15:00,
2017-04-30 05:30:00,79.3,75.0,29.90,East,88,1.0,8.0,85,0.00,,,0.03,weatherlink.com 1.10,2017-04-30 09:30:00,
2017-04-30 05:45:00,79.2,74.0,29.90,East,93,4.0,5.0,84,0.00,,,0.03,weatherlink.com 1.10,2017-04-30 09:45:00,
2017-04-30 06:01:00,79.5,74.0,29.91,ESE,108,0.0,8.0,84,0.00,,,0.03,weatherlink.com 1.10,2017-04-30 10:01:00,
2017-04-30 06:15:00,79.4,74.0,29.91,East,86,0.0,4.0,83,0.00,,,0.03,weatherlink.com 1.10,2017-04-30 10:15:00,
2017-04-30 06:30:00,79.7,74.0,29.91,NW,314,0.0,4.0,82,0.00,,,0.03,weatherlink.com 1.10,2017-04-30 10:30:00,
2017-04-30 06:45:00,80.0,74.0,29.92,NE,53,2.0,2.0,82,0.00,,,0.03,weatherlink.com 1.10,2017-04-30 10:45:00,
2017-04-30 07:00:00,80.6,74.0,29.92,NW,321,0.0,7.0,81,0.00,,,0.03,weatherlink.com 1.10,2017-04-30 11:00:00,
2017-04-30 07:15:00,81.5,75.0,29.93,West,278,0.0,5.0,80,0.00,,,0.03,weatherlink.com 1.10,2017-04-30 11:15:00,
2017-04-30 07:30:00,81.7,75.0,29.93,ENE,72,4.0,12.0,80,0.00,,,0.03,weatherlink.com 1.10,2017-04-30 11:30:00,
2017-04-30 07:45:00,82.2,76.0,29.93,East,93,3.0,9.0,80,0.00,,,0.03,weatherlink.com 1.10,2017-04-30 11:45:00,
2017-04-30 08:00:00,83.2,75.0,29.94,South,187,0.0,10.0,77,0.00,,,0.03,weatherlink.com 1.10,2017-04-30 12:00:00,
2017-04-30 08:16:00,84.6,76.0,29.94,ENE,58,1.0,8.0,75,0.00,,,0.03,weatherlink.com 1.10,2017-04-30 12:16:00,
2017-04-30 08:31:00,84.5,76.0,29.94,West,281,1.0,11.0,76,0.00,,,0.03,weatherlink.com 1.10,2017-04-30 12:31:00,
2017-04-30 08:46:00,84.4,76.0,29.94,East,93,1.0,10.0,76,0.00,,,0.03,weatherlink.com 1.10,2017-04-30 12:46:00,
2017-04-30 09:01:00,84.7,76.0,29.94,East,91,1.0,11.0,74,0.00,,,0.03,weatherlink.com 1.10,2017-04-30 13:01:00,
2017-04-30 09:16:00,85.7,76.0,29.94,ENE,76,10.0,10.0,73,0.00,,,0.03,weatherlink.com 1.10,2017-04-30 13:16:00,
2017-04-30 09:31:00,85.6,76.0,29.93,NE,41,2.0,10.0,73,0.00,,,0.03,weatherlink.com 1.10,2017-04-30 13:31:00,
2017-04-30 09:46:00,85.5,76.0,29.94,ENE,58,6.0,12.0,73,0.00,,,0.03,weatherlink.com 1.10,2017-04-30 13:46:00,
2017-04-30 10:01:00,85.2,77.0,29.93,East,96,1.0,11.0,75,0.00,,,0.03,weatherlink.com 1.10,2017-04-30 14:01:00,
2017-04-30 10:16:00,86.0,77.0,29.94,SW,225,3.0,11.0,74,0.00,,,0.03,weatherlink.com 1.10,2017-04-30 14:16:00,
2017-04-30 10:31:00,86.5,76.0,29.94,ESE,105,5.0,10.0,71,0.00,,,0.03,weatherlink.com 1.10,2017-04-30 14:31:00,
2017-04-30 10:46:00,87.0,76.0,29.94,North,351,4.0,13.0,69,0.00,,,0.03,weatherlink.com 1.10,2017-04-30 14:46:00,
2017-04-30 11:01:00,86.6,76.0,29.93,ENE,75,2.0,11.0,70,0.00,,,0.03,weatherlink.com 1.10,2017-04-30 15:01:00,
2017-04-30 11:16:00,86.6,77.0,29.93,ENE,69,3.0,9.0,72,0.00,,,0.03,weatherlink.com 1.10,2017-04-30 15:16:00,
2017-04-30 11:31:00,86.9,76.0,29.93,ESE,117,0.0,10.0,70,0.00,,,0.03,weatherlink.com 1.10,2017-04-30 15:31:00,
2017-04-30 11:46:00,87.1,76.0,29.93,SE,125,7.0,13.0,70,0.00,,,0.03,weatherlink.com 1.10,2017-04-30 15:46:00,
2017-04-30 12:01:00,87.0,76.0,29.93,ESE,109,4.0,12.0,70,0.00,,,0.03,weatherlink.com 1.10,2017-04-30 16:01:00,
2017-04-30 12:16:00,87.3,76.0,29.92,WSW,238,0.0,12.0,70,0.00,,,0.03,weatherlink.com 1.10,2017-04-30 16:16:00,
2017-04-30 12:31:00,87.5,76.0,29.92,East,101,0.0,15.0,69,0.00,,,0.03,weatherlink.com 1.10,2017-04-30 16:31:00,
2017-04-30 12:46:00,87.5,77.0,29.92,East,83,3.0,14.0,71,0.00,,,0.03,weatherlink.com 1.10,2017-04-30 16:46:00,
2017-04-30 13:01:00,88.4,78.0,29.91,ESE,105,0.0,10.0,70,0.00,,,0.03,weatherlink.com 1.10,2017-04-30 17:01:00,
2017-04-30 13:16:00,88.6,77.0,29.90,ENE,72,0.0,9.0,68,0.00,,,0.03,weatherlink.com 1.10,2017-04-30 17:16:00,
2017-04-30 13:31:00,88.6,77.0,29.90,WNW,282,1.0,8.0,69,0.00,,,0.03,weatherlink.com 1.10,2017-04-30 17:31:00,
2017-04-30 13:46:00,87.2,76.0,29.89,NE,38,4.0,14.0,70,0.00,,,0.03,weatherlink.com 1.10,2017-04-30 17:46:00,
2017-04-30 14:01:00,87.2,76.0,29.88,ENE,78,5.0,12.0,70,0.00,,,0.03,weatherlink.com 1.10,2017-04-30 18:01:00,
2017-04-30 14:16:00,87.1,77.0,29.88,ENE,67,1.0,10.0,72,0.00,,,0.03,weatherlink.com 1.10,2017-04-30 18:16:00,
2017-04-30 14:31:00,86.2,77.0,29.87,ESE,105,5.0,14.0,73,0.00,,,0.03,weatherlink.com 1.10,2017-04-30 18:31:00,
2017-04-30 14:46:00,85.9,76.0,29.87,ENE,69,10.0,11.0,73,0.00,,,0.03,weatherlink.com 1.10,2017-04-30 18:46:00,
2017-04-30 15:01:00,87.0,77.0,29.86,ENE,65,6.0,9.0,71,0.00,,,0.03,weatherlink.com 1.10,2017-04-30 19:01:00,
2017-04-30 15:16:00,86.9,77.0,29.86,East,87,3.0,12.0,72,0.00,,,0.03,weatherlink.com 1.10,2017-04-30 19:16:00,
2017-04-30 15:31:00,86.6,76.0,29.85,ENE,76,8.0,17.0,70,0.00,,,0.03,weatherlink.com 1.10,2017-04-30 19:31:00,
2017-04-30 15:46:00,86.4,76.0,29.85,East,83,2.0,10.0,70,0.00,,,0.03,weatherlink.com 1.10,2017-04-30 19:46:00,
2017-04-30 16:01:00,86.3,75.0,29.85,East,93,3.0,7.0,70,0.00,,,0.03,weatherlink.com 1.10,2017-04-30 20:01:00,
2017-04-30 16:17:00,86.5,76.0,29.85,ESE,121,0.0,8.0,71,0.00,,,0.03,weatherlink.com 1.10,2017-04-30 20:17:00,
2017-04-30 16:32:00,85.5,76.0,29.85,East,84,1.0,8.0,73,0.00,,,0.03,weatherlink.com 1.10,2017-04-30 20:32:00,
2017-04-30 16:47:00,84.8,76.0,29.85,SE,125,3.0,10.0,74,0.00,,,0.03,weatherlink.com 1.10,2017-04-30 20:47:00,
2017-04-30 17:02:00,84.9,76.0,29.85,WSW,252,0.0,9.0,74,0.00,,,0.03,weatherlink.com 1.10,2017-04-30 21:02:00,
2017-04-30 17:17:00,84.9,75.0,29.86,ENE,65,1.0,5.0,73,0.00,,,0.03,weatherlink.com 1.10,2017-04-30 21:17:00,
2017-04-30 17:32:00,83.9,75.0,29.85,ENE,70,6.0,9.0,74,0.00,,,0.03,weatherlink.com 1.10,2017-04-30 21:32:00,
2017-04-30 17:47:00,83.5,75.0,29.86,WNW,285,2.0,8.0,76,0.00,,,0.03,weatherlink.com 1.10,2017-04-30 21:47:00,
2017-04-30 18:02:00,83.0,75.0,29.86,SE,130,3.0,10.0,77,0.00,,,0.03,weatherlink.com 1.10,2017-04-30 22:02:00,
2017-04-30 18:17:00,82.6,75.0,29.87,NE,51,4.0,8.0,78,0.00,,,0.03,weatherlink.com 1.10,2017-04-30 22:17:00,